GVBA

Rabil Airport

Rabil, Cape Verde
METAR GVBA 171900Z 02018KT 9999 SCT015 SCT100 20/14 Q1016 NOSIG
Observed Flight Rules
Feb-17 @ 19:00 UTC (3 hours ago) Visual Flight Rules
Wind Visibility Clouds
20° at 18 knots 10,000+ meters
  • Scattered at 1,500' AGL
  • Scattered at 10,000' AGL
Temperatures Readings
Current 20°C / 68°F
Dewpoint 14°C / 57°F
Humidity 69%
Altimeter 30" Hg
Pressure 1016 hPa
Elevation 22
METAR GVBA 171900Z 02018KT 9999 SCT015 SCT100 20/14 Q1016 NOSIG
Observed Flight Rules
Feb-17 @ 19:00 UTC
(3 hours ago)
VFR
Wind Visibility
20° at 18 knots 10,000+ meters
Clouds
  • Scattered at 1,500' AGL
  • Scattered at 10,000' AGL
Temperature Dewpoint
20°C / 68°F 14°C / 57°F
Humidity Altimeter Pressure
69% 30" Hg 1016 hPa